Terminal Aerodrome Forecast
Issued by NWS

Home | Current Version | Previous Version | Text Only | Print | Product List | Glossary On
Versions: 1 2 3 4 5 6 7 8 9 10 11 12 13
000
FTUS44 KCRP 252300
TAFLRD
TAF
KLRD 252320Z 2600/2624 15010KT P6SM SCT250
      TEMPO 2608/2612 5SM BR BKN008
     FM261500 16006KT P6SM SCT020
     FM261900 15008KT P6SM FEW020 SCT100=

USA.gov is the U.S. government's official web portal to all federal, state and local government web resources and services.